createdAt,value
2022-11-26T00:01:43.377Z,5.57
2022-11-26T00:04:10.229Z,3.93
2022-11-26T00:06:37.834Z,4.33
2022-11-26T00:09:05.973Z,5.23
2022-11-26T00:11:32.838Z,3.60
2022-11-26T00:13:59.497Z,4.53
2022-11-26T00:16:26.688Z,4.47
2022-11-26T00:18:53.254Z,4.50
2022-11-26T00:21:25.497Z,4.43
2022-11-26T00:23:53.550Z,4.33
2022-11-26T00:26:22.569Z,4.53
2022-11-26T00:29:02.498Z,4.67
2022-11-26T00:31:29.768Z,3.63
2022-11-26T00:33:56.775Z,3.50
2022-11-26T00:36:30.012Z,3.90
2022-11-26T00:39:11.564Z,4.70
2022-11-26T00:41:39.740Z,3.33
2022-11-26T00:44:19.690Z,3.70
2022-11-26T00:46:47.709Z,4.57
2022-11-26T00:49:15.567Z,3.80
2022-11-26T00:51:43.139Z,4.07
2022-11-26T00:54:13.343Z,3.70
2022-11-26T00:56:40.671Z,4.17
2022-11-26T00:59:14.009Z,4.23
2022-11-26T01:01:41.280Z,4.10
2022-11-26T01:04:08.365Z,3.63
2022-11-26T01:06:38.058Z,5.00
2022-11-26T01:09:05.737Z,3.30
2022-11-26T01:11:32.835Z,3.13
2022-11-26T01:13:59.993Z,4.23
2022-11-26T01:16:35.225Z,4.33
2022-11-26T01:19:02.938Z,4.70
2022-11-26T01:21:31.828Z,4.30
2022-11-26T01:23:58.385Z,3.67
2022-11-26T01:26:28.386Z,4.50
2022-11-26T01:28:55.549Z,3.43
2022-11-26T01:31:25.218Z,3.63
2022-11-26T01:33:52.191Z,4.17
2022-11-26T01:36:32.043Z,4.37
2022-11-26T01:39:04.163Z,4.47
2022-11-26T01:41:53.060Z,4.33
2022-11-26T01:44:22.708Z,3.83
2022-11-26T01:46:49.856Z,4.47
2022-11-26T01:49:28.456Z,3.37
2022-11-26T01:52:22.224Z,3.57
2022-11-26T01:54:48.951Z,4.97
2022-11-26T01:57:29.814Z,4.07
2022-11-26T02:00:01.367Z,4.20
2022-11-26T02:02:29.128Z,5.50
2022-11-26T02:05:07.801Z,4.67
2022-11-26T02:07:35.804Z,4.80
2022-11-26T02:10:02.966Z,3.83
2022-11-26T02:12:29.791Z,4.43
2022-11-26T02:14:56.919Z,4.53
2022-11-26T02:17:24.028Z,4.93
2022-11-26T02:20:28.100Z,3.47
2022-11-26T02:23:36.656Z,3.73
2022-11-26T02:26:03.339Z,3.90
2022-11-26T02:28:48.720Z,3.93
2022-11-26T02:31:53.181Z,4.37
2022-11-26T02:34:37.567Z,3.93
2022-11-26T02:37:11.145Z,4.13
2022-11-26T02:39:37.880Z,3.97
2022-11-26T02:42:22.725Z,4.33
2022-11-26T02:44:49.818Z,3.63
2022-11-26T02:47:18.450Z,5.17
2022-11-26T02:49:46.306Z,4.93
2022-11-26T02:52:14.030Z,3.93
2022-11-26T02:54:42.136Z,5.13
2022-11-26T02:57:12.168Z,5.13
2022-11-26T02:59:39.123Z,5.03
2022-11-26T03:02:17.253Z,4.10
2022-11-26T03:04:47.393Z,3.57
2022-11-26T03:07:14.879Z,4.33
2022-11-26T03:09:56.859Z,5.07
2022-11-26T03:12:24.224Z,4.13
2022-11-26T03:14:51.017Z,5.57
2022-11-26T03:17:17.720Z,4.63
2022-11-26T03:19:45.683Z,4.03
2022-11-26T03:22:13.208Z,4.57
2022-11-26T03:24:40.523Z,4.97
2022-11-26T03:27:07.664Z,4.40
2022-11-26T03:29:34.287Z,5.67
2022-11-26T03:32:00.990Z,4.53
2022-11-26T03:34:27.597Z,5.10
2022-11-26T03:36:54.199Z,4.43
2022-11-26T03:39:20.709Z,4.57
2022-11-26T03:41:47.171Z,3.97
2022-11-26T03:44:14.177Z,4.23
2022-11-26T03:46:40.751Z,3.83
2022-11-26T03:49:07.545Z,4.10
2022-11-26T03:51:34.130Z,4.13
2022-11-26T03:54:00.589Z,3.90
2022-11-26T03:56:27.121Z,4.93
2022-11-26T03:58:53.606Z,5.67
2022-11-26T04:01:20.214Z,4.00
2022-11-26T04:03:46.834Z,5.27
2022-11-26T04:06:13.347Z,4.40
2022-11-26T04:08:39.887Z,4.30
2022-11-26T04:11:06.467Z,4.13
2022-11-26T04:13:32.941Z,3.90
2022-11-26T04:15:59.841Z,4.70
2022-11-26T04:18:26.451Z,4.27
2022-11-26T04:20:53.601Z,4.87
2022-11-26T04:23:21.292Z,4.53
2022-11-26T04:25:47.854Z,5.43
2022-11-26T04:28:15.213Z,4.43
2022-11-26T04:30:42.989Z,3.97
2022-11-26T04:33:09.914Z,4.70
2022-11-26T04:35:36.559Z,4.50
2022-11-26T04:38:03.088Z,4.40
2022-11-26T04:40:29.586Z,4.17
2022-11-26T04:42:56.202Z,4.10
2022-11-26T04:45:23.054Z,4.47
2022-11-26T04:47:49.657Z,4.17
2022-11-26T04:50:16.228Z,5.23
2022-11-26T04:52:42.680Z,5.00
2022-11-26T04:55:09.569Z,4.37
2022-11-26T04:57:36.159Z,4.57
2022-11-26T05:00:02.755Z,4.50
2022-11-26T05:02:29.272Z,5.40
2022-11-26T05:04:55.827Z,4.30
2022-11-26T05:07:22.341Z,5.93
2022-11-26T05:09:48.908Z,5.47
2022-11-26T05:12:15.751Z,5.13
2022-11-26T05:14:42.228Z,5.33
2022-11-26T05:17:08.694Z,4.73
2022-11-26T05:19:35.203Z,3.90
2022-11-26T05:22:01.758Z,4.43
2022-11-26T05:24:28.267Z,5.50
2022-11-26T05:26:57.124Z,4.77
2022-11-26T05:29:24.532Z,4.37
2022-11-26T05:31:51.077Z,5.20
2022-11-26T05:34:18.931Z,6.67
2022-11-26T05:36:45.423Z,5.57
2022-11-26T05:39:12.026Z,4.47
2022-11-26T05:41:38.655Z,4.33
2022-11-26T05:44:06.108Z,5.70
2022-11-26T05:46:32.853Z,6.40
2022-11-26T05:48:59.330Z,8.10
2022-11-26T05:51:25.828Z,4.80
2022-11-26T05:53:52.473Z,4.03
2022-11-26T05:56:18.966Z,5.20
2022-11-26T05:58:45.516Z,5.80
2022-11-26T06:01:12.097Z,3.77
2022-11-26T06:03:39.033Z,5.70
2022-11-26T06:06:05.925Z,5.87
2022-11-26T06:08:32.427Z,5.57
2022-11-26T06:10:58.931Z,5.77
2022-11-26T06:13:25.783Z,5.53
2022-11-26T06:15:52.327Z,5.37
2022-11-26T06:18:18.866Z,5.20
2022-11-26T06:20:45.412Z,5.60
2022-11-26T06:23:11.988Z,5.23
2022-11-26T06:25:42.124Z,5.53
2022-11-26T06:28:08.758Z,5.90
2022-11-26T06:30:35.251Z,6.53
2022-11-26T06:33:01.942Z,5.67
2022-11-26T06:35:28.521Z,5.30
2022-11-26T06:37:54.972Z,4.40
2022-11-26T06:40:22.574Z,5.37
2022-11-26T06:42:53.513Z,5.57
2022-11-26T06:45:21.895Z,5.40
2022-11-26T06:47:49.802Z,5.80
2022-11-26T06:50:21.868Z,6.20
2022-11-26T06:52:52.875Z,6.63
2022-11-26T06:55:19.842Z,4.97
2022-11-26T06:57:50.136Z,5.53
2022-11-26T07:00:16.822Z,6.20
2022-11-26T07:02:43.667Z,5.37
2022-11-26T07:05:10.198Z,6.17
2022-11-26T07:07:38.233Z,5.73
2022-11-26T07:10:05.492Z,6.13
2022-11-26T07:12:32.017Z,4.90
2022-11-26T07:14:58.584Z,6.20
2022-11-26T07:17:25.369Z,6.13
2022-11-26T07:19:51.829Z,5.90
2022-11-26T07:22:18.267Z,6.63
2022-11-26T07:24:44.767Z,5.10
2022-11-26T07:27:11.250Z,4.87
2022-11-26T07:29:37.773Z,6.00
2022-11-26T07:32:04.430Z,6.00
2022-11-26T07:34:31.088Z,5.30
2022-11-26T07:36:58.297Z,5.63
2022-11-26T07:39:25.067Z,5.77
2022-11-26T07:41:51.510Z,5.97
2022-11-26T07:44:18.035Z,5.30
2022-11-26T07:46:44.588Z,5.83
2022-11-26T07:49:11.060Z,5.60
2022-11-26T07:51:37.577Z,5.70
2022-11-26T07:54:05.940Z,4.13
2022-11-26T07:56:32.708Z,5.53
2022-11-26T07:58:59.390Z,5.70
2022-11-26T08:01:28.206Z,4.83
2022-11-26T08:03:55.205Z,4.90
2022-11-26T08:06:24.795Z,5.10
2022-11-26T08:08:52.137Z,5.30
2022-11-26T08:11:24.490Z,6.33
2022-11-26T08:13:56.929Z,5.33
2022-11-26T08:16:23.512Z,6.20
2022-11-26T08:18:54.725Z,5.40
2022-11-26T08:21:21.799Z,5.30
2022-11-26T08:23:48.338Z,5.63
2022-11-26T08:26:29.312Z,5.07
2022-11-26T08:29:00.247Z,5.77
2022-11-26T08:31:27.808Z,4.17
2022-11-26T08:34:01.089Z,5.17
2022-11-26T08:36:28.637Z,6.00
2022-11-26T08:38:55.185Z,6.20
2022-11-26T08:41:22.193Z,5.83
2022-11-26T08:46:40.477Z,4.90
2022-11-26T08:49:09.352Z,5.67
2022-11-26T08:51:35.997Z,6.60
2022-11-26T08:54:02.801Z,7.13
2022-11-26T08:56:29.541Z,6.73
2022-11-26T08:58:56.024Z,6.13
2022-11-26T09:01:29.673Z,5.37
2022-11-26T09:03:58.730Z,4.87
2022-11-26T09:06:28.054Z,5.30
2022-11-26T09:09:13.706Z,4.40
2022-11-26T09:11:45.474Z,4.73
2022-11-26T09:14:15.123Z,4.77
2022-11-26T09:16:41.706Z,4.70
2022-11-26T09:19:08.773Z,4.30
2022-11-26T09:21:35.666Z,4.60
2022-11-26T09:24:02.823Z,4.23
2022-11-26T09:26:31.301Z,4.60
2022-11-26T09:28:58.037Z,4.10
2022-11-26T09:31:24.928Z,4.03
2022-11-26T09:33:51.837Z,4.10
2022-11-26T09:36:19.030Z,5.00
2022-11-26T09:38:45.789Z,3.33
2022-11-26T09:41:43.784Z,4.67
2022-11-26T09:44:22.786Z,3.80
2022-11-26T09:47:12.105Z,9.93
2022-11-26T09:49:58.399Z,3.57
2022-11-26T09:52:28.927Z,3.07
2022-11-26T09:55:26.902Z,3.43
2022-11-26T09:58:26.605Z,4.97
2022-11-26T10:00:56.245Z,4.00
2022-11-26T10:03:25.234Z,3.43
2022-11-26T10:05:58.774Z,3.60
2022-11-26T10:08:40.644Z,3.70
2022-11-26T10:11:29.022Z,3.53
2022-11-26T10:14:05.593Z,2.97
2022-11-26T10:16:53.543Z,13.20
2022-11-26T10:19:23.278Z,11.77
2022-11-26T10:22:00.259Z,3.17
2022-11-26T10:24:33.431Z,2.70
2022-11-26T10:27:02.087Z,3.97
2022-11-26T10:29:38.378Z,3.00
2022-11-26T10:32:17.016Z,2.53
2022-11-26T10:34:50.926Z,2.73
2022-11-26T10:37:19.138Z,3.70
2022-11-26T10:39:45.719Z,5.97
2022-11-26T10:42:20.789Z,3.03
2022-11-26T10:44:49.566Z,2.83
2022-11-26T10:47:25.037Z,2.50
2022-11-26T10:49:53.523Z,2.80
2022-11-26T10:52:26.095Z,3.50
2022-11-26T10:55:09.876Z,4.60
2022-11-26T10:57:43.695Z,3.53
2022-11-26T11:00:31.898Z,5.10
2022-11-26T11:02:59.195Z,4.80
2022-11-26T11:05:25.920Z,5.17
2022-11-26T11:07:54.723Z,7.57
2022-11-26T11:10:24.248Z,4.63
2022-11-26T11:12:59.941Z,3.03
2022-11-26T11:15:29.124Z,2.20
2022-11-26T11:18:02.669Z,1.87
2022-11-26T11:20:37.504Z,2.83
2022-11-26T11:23:16.439Z,1.50
2022-11-26T11:25:46.265Z,2.07
2022-11-26T11:28:12.816Z,2.20
2022-11-26T11:30:41.096Z,1.97
2022-11-26T11:33:26.392Z,2.00
2022-11-26T11:36:05.399Z,2.37
2022-11-26T11:38:48.501Z,2.20
2022-11-26T11:41:36.027Z,2.37
2022-11-26T11:44:14.538Z,2.07
2022-11-26T11:46:58.959Z,1.83
2022-11-26T11:49:35.710Z,2.23
2022-11-26T11:52:53.499Z,2.43
2022-11-26T11:55:25.386Z,1.93
2022-11-26T11:58:45.621Z,2.07
2022-11-26T12:01:49.395Z,2.07
2022-11-26T12:04:46.642Z,2.37
2022-11-26T12:07:33.799Z,2.37
2022-11-26T12:10:49.478Z,2.33
2022-11-26T12:13:16.797Z,1.80
2022-11-26T12:16:00.188Z,2.00
2022-11-26T12:18:36.889Z,1.30
2022-11-26T12:21:14.942Z,2.03
2022-11-26T12:23:44.495Z,2.33
2022-11-26T12:26:18.049Z,2.73
2022-11-26T12:29:03.837Z,1.90
2022-11-26T12:31:47.329Z,1.90
2022-11-26T12:34:31.618Z,1.70
2022-11-26T12:37:02.637Z,1.90
2022-11-26T12:39:54.418Z,2.43
2022-11-26T12:42:32.184Z,2.07
2022-11-26T12:45:16.127Z,2.13
2022-11-26T12:47:49.366Z,1.87
2022-11-26T12:50:19.453Z,1.83
2022-11-26T12:53:07.963Z,3.17
2022-11-26T12:56:05.667Z,1.80
2022-11-26T12:58:54.549Z,2.20
2022-11-26T13:01:21.303Z,2.67
2022-11-26T13:03:47.824Z,3.77
2022-11-26T13:06:35.115Z,2.40
2022-11-26T13:09:02.161Z,3.63
2022-11-26T13:11:31.418Z,2.60
2022-11-26T13:14:22.711Z,2.60
2022-11-26T13:17:04.401Z,2.80
2022-11-26T13:19:44.872Z,2.70
2022-11-26T13:22:14.324Z,4.67
2022-11-26T13:24:56.129Z,3.57
2022-11-26T13:27:30.360Z,1.80
2022-11-26T13:30:19.703Z,1.43
2022-11-26T13:33:14.808Z,1.43
2022-11-26T13:36:06.347Z,2.97
2022-11-26T13:39:04.721Z,1.60
2022-11-26T13:41:49.060Z,1.83
2022-11-26T13:44:29.387Z,2.20
2022-11-26T13:47:19.260Z,1.77
2022-11-26T13:49:50.888Z,1.60
2022-11-26T13:52:28.510Z,1.87
2022-11-26T13:55:23.282Z,1.90
2022-11-26T13:57:58.083Z,2.00
2022-11-26T14:00:36.065Z,1.97
2022-11-26T14:03:05.399Z,1.73
2022-11-26T14:05:50.916Z,7.43
2022-11-26T14:08:46.645Z,5.17
2022-11-26T14:11:44.351Z,3.57
2022-11-26T14:14:42.495Z,2.30
2022-11-26T14:17:16.982Z,2.67
2022-11-26T14:19:43.604Z,2.37
2022-11-26T14:22:19.281Z,1.70
2022-11-26T14:24:51.923Z,1.90
2022-11-26T14:27:42.933Z,2.50
2022-11-26T14:30:14.984Z,1.43
2022-11-26T14:32:52.965Z,2.63
2022-11-26T14:35:34.916Z,1.73
2022-11-26T14:38:04.691Z,1.63
2022-11-26T14:40:36.490Z,3.33
2022-11-26T14:43:17.534Z,2.70
2022-11-26T14:45:45.620Z,2.10
2022-11-26T14:48:30.909Z,2.03
2022-11-26T14:50:59.985Z,1.93
2022-11-26T14:53:30.385Z,2.20
2022-11-26T14:55:57.078Z,1.73
2022-11-26T14:58:33.249Z,2.87
2022-11-26T15:01:14.882Z,2.60
2022-11-26T15:03:41.743Z,2.60
2022-11-26T15:06:37.590Z,3.00
2022-11-26T15:09:11.801Z,2.93
2022-11-26T15:11:42.436Z,3.00
2022-11-26T15:14:46.739Z,2.67
2022-11-26T15:17:16.184Z,4.47
2022-11-26T15:19:43.388Z,3.50
2022-11-26T15:22:38.491Z,3.57
2022-11-26T15:25:06.604Z,5.70
2022-11-26T15:27:39.366Z,4.53
2022-11-26T15:30:18.825Z,3.10
2022-11-26T15:32:45.330Z,3.87
2022-11-26T15:35:15.817Z,3.67
2022-11-26T15:37:42.262Z,3.50
2022-11-26T15:40:31.570Z,4.17
2022-11-26T15:43:01.082Z,2.97
2022-11-26T15:45:39.644Z,2.93
2022-11-26T15:48:27.144Z,2.07
2022-11-26T15:50:57.557Z,2.10
2022-11-26T15:53:31.554Z,2.10
2022-11-26T15:55:58.291Z,2.53
2022-11-26T15:58:28.696Z,2.33
2022-11-26T16:00:57.577Z,2.87
2022-11-26T16:03:42.902Z,2.03
2022-11-26T16:06:31.591Z,2.57
2022-11-26T16:09:13.650Z,2.50
2022-11-26T16:11:56.932Z,5.37
2022-11-26T16:14:27.416Z,2.80
2022-11-26T16:16:53.925Z,2.87
2022-11-26T16:19:23.861Z,3.27
2022-11-26T16:21:51.665Z,3.43
2022-11-26T16:24:40.280Z,3.53
2022-11-26T16:27:22.055Z,2.97
2022-11-26T16:29:48.597Z,3.93
2022-11-26T16:32:16.834Z,4.10
2022-11-26T16:34:43.767Z,3.77
2022-11-26T16:37:20.166Z,3.50
2022-11-26T16:39:46.995Z,3.17
2022-11-26T16:42:21.938Z,4.07
2022-11-26T16:44:49.129Z,3.10
2022-11-26T16:47:28.738Z,3.67
2022-11-26T16:49:55.501Z,4.20
2022-11-26T16:52:22.197Z,3.63
2022-11-26T16:54:49.253Z,3.63
2022-11-26T16:57:18.931Z,3.67
2022-11-26T16:59:50.438Z,4.53
2022-11-26T17:02:18.704Z,4.17
2022-11-26T17:04:45.556Z,3.33
2022-11-26T17:07:14.229Z,3.07
2022-11-26T17:09:41.412Z,3.40
2022-11-26T17:12:20.017Z,3.73
2022-11-26T17:14:47.195Z,3.77
2022-11-26T17:17:19.050Z,2.80
2022-11-26T17:19:48.699Z,4.10
2022-11-26T17:22:15.245Z,4.43
2022-11-26T17:24:41.695Z,3.87
2022-11-26T17:27:16.236Z,3.90
2022-11-26T17:29:44.843Z,3.93
2022-11-26T17:32:13.346Z,3.57
2022-11-26T17:34:40.617Z,3.47
2022-11-26T17:37:13.426Z,3.63
2022-11-26T17:39:40.197Z,2.80
2022-11-26T17:42:07.253Z,3.70
2022-11-26T17:44:33.709Z,3.13
2022-11-26T17:47:16.235Z,3.70
2022-11-26T17:49:43.997Z,3.47
2022-11-26T17:52:11.168Z,4.63
2022-11-26T17:54:37.770Z,5.70
2022-11-26T17:57:04.377Z,5.67
2022-11-26T17:59:31.399Z,5.57
2022-11-26T18:01:57.992Z,5.60
2022-11-26T18:04:24.542Z,5.13
2022-11-26T18:07:14.319Z,5.20
2022-11-26T18:09:41.831Z,6.00
2022-11-26T18:12:20.137Z,6.10
2022-11-26T18:14:49.763Z,6.93
2022-11-26T18:17:16.356Z,8.87
2022-11-26T18:19:43.923Z,8.67
2022-11-26T18:22:12.900Z,7.70
2022-11-26T18:24:39.666Z,6.70
2022-11-26T18:27:06.890Z,5.43
2022-11-26T18:29:33.626Z,5.67
2022-11-26T18:32:00.302Z,5.87
2022-11-26T18:34:26.906Z,6.80
2022-11-26T18:36:54.116Z,5.40
2022-11-26T18:39:20.795Z,6.20
2022-11-26T18:41:47.353Z,5.77
2022-11-26T18:44:14.164Z,5.00
2022-11-26T18:46:40.701Z,5.07
2022-11-26T18:49:07.358Z,5.67
2022-11-26T18:51:33.935Z,6.40
2022-11-26T18:54:01.690Z,4.60
2022-11-26T18:56:28.242Z,5.03
2022-11-26T18:58:55.602Z,4.77
2022-11-26T19:01:28.356Z,4.73
2022-11-26T19:03:55.343Z,4.80
2022-11-26T19:06:24.187Z,4.90
2022-11-26T19:08:51.650Z,5.17
2022-11-26T19:11:20.863Z,4.27
2022-11-26T19:13:48.240Z,4.30
2022-11-26T19:16:17.098Z,4.17
2022-11-26T19:18:45.054Z,4.00
2022-11-26T19:21:26.233Z,4.13
2022-11-26T19:23:54.222Z,5.57
2022-11-26T19:26:21.639Z,4.07
2022-11-26T19:28:48.550Z,5.03
2022-11-26T19:31:18.035Z,5.70
2022-11-26T19:33:48.990Z,4.93
2022-11-26T19:36:16.883Z,4.77
2022-11-26T19:38:44.684Z,4.50
2022-11-26T19:41:12.161Z,5.00
2022-11-26T19:43:40.714Z,4.30
2022-11-26T19:46:13.927Z,3.73
2022-11-26T19:48:42.888Z,3.60
2022-11-26T19:51:10.512Z,4.00
2022-11-26T19:53:37.828Z,5.80
2022-11-26T19:56:12.899Z,3.50
2022-11-26T19:58:39.463Z,4.23
2022-11-26T20:01:07.789Z,4.03
2022-11-26T20:03:37.564Z,3.80
2022-11-26T20:06:06.384Z,4.37
2022-11-26T20:08:33.689Z,5.83
2022-11-26T20:11:01.947Z,3.97
2022-11-26T20:13:30.036Z,4.77
2022-11-26T20:15:56.680Z,6.30
2022-11-26T20:18:23.547Z,6.97
2022-11-26T20:21:04.981Z,5.33
2022-11-26T20:23:31.638Z,4.97
2022-11-26T20:25:58.136Z,4.80
2022-11-26T20:28:24.872Z,4.70
2022-11-26T20:30:51.822Z,7.87
2022-11-26T20:33:18.950Z,6.60
2022-11-26T20:35:46.233Z,5.40
2022-11-26T20:38:13.067Z,5.40
2022-11-26T20:40:41.759Z,5.20
2022-11-26T20:43:09.385Z,5.20
2022-11-26T20:45:36.132Z,4.37
2022-11-26T20:48:02.998Z,4.80
2022-11-26T20:50:29.691Z,5.50
2022-11-26T20:52:56.733Z,4.80
2022-11-26T20:55:23.675Z,4.83
2022-11-26T20:57:50.299Z,5.70
2022-11-26T21:00:17.821Z,5.50
2022-11-26T21:02:45.897Z,4.20
2022-11-26T21:05:14.054Z,4.93
2022-11-26T21:07:40.738Z,6.00
2022-11-26T21:10:08.515Z,7.03
2022-11-26T21:12:35.460Z,8.73
2022-11-26T21:15:02.032Z,5.70
2022-11-26T21:17:28.910Z,5.30
2022-11-26T21:19:55.397Z,5.87
2022-11-26T21:22:22.278Z,6.07
2022-11-26T21:24:48.863Z,6.17
2022-11-26T21:27:16.217Z,5.73
2022-11-26T21:29:42.757Z,5.23
2022-11-26T21:32:09.848Z,4.47
2022-11-26T21:34:36.466Z,4.87
2022-11-26T21:37:03.180Z,6.53
2022-11-26T21:39:29.776Z,6.93
2022-11-26T21:41:56.328Z,6.57
2022-11-26T21:44:22.895Z,6.03
2022-11-26T21:46:49.734Z,5.50
2022-11-26T21:49:17.219Z,5.63
2022-11-26T21:51:43.995Z,5.90
2022-11-26T21:54:10.762Z,5.53
2022-11-26T21:56:37.279Z,5.67
2022-11-26T21:59:04.244Z,5.70
2022-11-26T22:01:35.905Z,5.87
2022-11-26T22:04:08.448Z,5.97
2022-11-26T22:06:35.343Z,5.33
2022-11-26T22:09:02.692Z,6.53
2022-11-26T22:11:33.648Z,4.40
2022-11-26T22:14:00.167Z,5.57
2022-11-26T22:16:28.263Z,6.23
2022-11-26T22:18:56.288Z,6.23
2022-11-26T22:21:25.984Z,6.37
2022-11-26T22:23:53.204Z,6.47
2022-11-26T22:26:20.310Z,6.87
2022-11-26T22:28:47.580Z,5.40
2022-11-26T22:31:17.682Z,5.30
2022-11-26T22:33:44.568Z,4.53
2022-11-26T22:36:11.612Z,6.17
2022-11-26T22:38:39.524Z,5.50
2022-11-26T22:41:08.526Z,4.50
2022-11-26T22:43:35.470Z,4.80
2022-11-26T22:46:06.821Z,4.23
2022-11-26T22:48:34.286Z,4.57
2022-11-26T22:51:01.420Z,5.30
2022-11-26T22:53:28.064Z,4.20
2022-11-26T22:55:56.664Z,4.90
2022-11-26T22:58:24.684Z,4.53
2022-11-26T23:00:56.599Z,4.50
2022-11-26T23:03:24.127Z,4.50
2022-11-26T23:05:50.858Z,4.03
2022-11-26T23:08:18.017Z,5.00
2022-11-26T23:10:45.178Z,3.70
2022-11-26T23:13:13.007Z,4.43
2022-11-26T23:15:44.502Z,3.87
2022-11-26T23:18:12.897Z,3.60
2022-11-26T23:20:39.595Z,3.90
2022-11-26T23:23:06.250Z,4.40
2022-11-26T23:25:32.923Z,4.07
2022-11-26T23:27:59.489Z,3.70
2022-11-26T23:30:26.770Z,3.90
2022-11-26T23:32:53.243Z,3.87
2022-11-26T23:35:19.854Z,3.73
2022-11-26T23:37:46.403Z,4.80
2022-11-26T23:40:13.814Z,3.63
2022-11-26T23:42:40.275Z,4.73
2022-11-26T23:45:07.648Z,4.40
2022-11-26T23:47:35.860Z,4.10
2022-11-26T23:50:03.746Z,4.10
2022-11-26T23:52:30.202Z,4.10
2022-11-26T23:54:57.115Z,3.80
2022-11-26T23:57:23.879Z,4.50
2022-11-26T23:59:50.369Z,3.43
